createdAt,value
2022-10-13T00:00:17.015Z,24.80
2022-10-13T00:02:43.847Z,27.00
2022-10-13T00:05:14.342Z,27.02
2022-10-13T00:07:40.978Z,26.10
2022-10-13T00:10:08.605Z,27.00
2022-10-13T00:12:40.979Z,26.80
2022-10-13T00:15:08.809Z,25.35
2022-10-13T00:17:36.605Z,25.17
2022-10-13T00:20:04.898Z,23.52
2022-10-13T00:22:32.392Z,23.58
2022-10-13T00:25:06.527Z,21.90
2022-10-13T00:27:33.263Z,23.27
2022-10-13T00:30:03.110Z,23.58
2022-10-13T00:32:30.275Z,22.35
2022-10-13T00:34:59.975Z,25.75
2022-10-13T00:37:26.873Z,27.42
2022-10-13T00:39:55.737Z,27.30
2022-10-13T00:42:23.483Z,27.70
2022-10-13T00:45:24.774Z,28.25
2022-10-13T00:47:55.652Z,23.35
2022-10-13T00:50:34.017Z,23.13
2022-10-13T00:53:02.025Z,23.58
2022-10-13T00:55:33.836Z,22.17
2022-10-13T00:58:12.887Z,19.90
2022-10-13T01:00:44.496Z,19.45
2022-10-13T01:03:11.720Z,18.70
2022-10-13T01:05:42.966Z,17.50
2022-10-13T01:08:14.796Z,16.60
2022-10-13T01:11:16.293Z,16.27
2022-10-13T01:14:03.657Z,15.68
2022-10-13T01:16:41.247Z,16.48
2022-10-13T01:19:37.020Z,18.02
2022-10-13T01:22:22.533Z,17.02
2022-10-13T01:25:20.062Z,17.15
2022-10-13T01:28:04.946Z,17.63
2022-10-13T01:30:38.159Z,16.98
2022-10-13T01:33:17.831Z,18.73
2022-10-13T01:36:02.956Z,17.85
2022-10-13T01:38:55.173Z,18.05
2022-10-13T01:41:51.142Z,20.15
2022-10-13T01:44:27.888Z,24.23
2022-10-13T01:46:55.153Z,23.40
2022-10-13T01:49:32.893Z,26.15
2022-10-13T01:52:04.549Z,27.23
2022-10-13T01:54:33.649Z,26.73
2022-10-13T01:57:00.398Z,26.40
2022-10-13T01:59:29.599Z,25.83
2022-10-13T02:02:19.558Z,26.75
2022-10-13T02:05:08.164Z,23.92
2022-10-13T02:07:48.323Z,25.58
2022-10-13T02:10:27.655Z,26.08
2022-10-13T02:13:05.571Z,26.85
2022-10-13T02:15:46.327Z,27.13
2022-10-13T02:20:44.084Z,27.10
2022-10-13T02:23:16.601Z,27.67
2022-10-13T02:25:43.920Z,27.50
2022-10-13T02:28:13.361Z,26.15
2022-10-13T02:30:41.339Z,26.92
2022-10-13T02:33:09.242Z,24.58
2022-10-13T02:35:35.967Z,26.23
2022-10-13T02:38:03.018Z,26.33
2022-10-13T02:40:30.018Z,26.13
2022-10-13T02:42:56.872Z,26.48
2022-10-13T02:45:24.843Z,27.20
2022-10-13T02:47:51.684Z,27.40
2022-10-13T02:50:19.731Z,25.95
2022-10-13T02:52:46.571Z,27.65
2022-10-13T02:55:13.238Z,25.98
2022-10-13T02:57:44.415Z,27.42
2022-10-13T03:00:12.155Z,26.30
2022-10-13T03:02:41.847Z,27.77
2022-10-13T03:05:09.672Z,27.25
2022-10-13T03:07:36.691Z,26.83
2022-10-13T03:10:05.262Z,25.85
2022-10-13T03:12:39.564Z,26.02
2022-10-13T03:15:06.800Z,28.50
2022-10-13T03:17:39.248Z,26.48
2022-10-13T03:20:16.055Z,27.75
2022-10-13T03:22:49.889Z,26.80
2022-10-13T03:25:17.286Z,24.73
2022-10-13T03:27:44.055Z,24.95
2022-10-13T03:30:14.262Z,26.17
2022-10-13T03:32:43.691Z,25.20
2022-10-13T03:35:14.181Z,27.90
2022-10-13T03:37:43.453Z,24.92
2022-10-13T03:40:21.146Z,25.98
2022-10-13T03:42:49.259Z,25.17
2022-10-13T03:45:22.998Z,26.52
2022-10-13T03:47:50.850Z,26.98
2022-10-13T03:50:17.905Z,27.45
2022-10-13T03:53:01.095Z,25.95
2022-10-13T03:55:30.968Z,25.88
2022-10-13T03:58:11.779Z,26.23
2022-10-13T04:00:38.554Z,25.75
2022-10-13T04:03:07.150Z,26.67
2022-10-13T04:05:36.875Z,26.67
2022-10-13T04:08:09.352Z,25.73
2022-10-13T04:10:37.454Z,26.55
2022-10-13T04:13:04.165Z,27.10
2022-10-13T04:15:31.089Z,27.80
2022-10-13T04:18:00.276Z,26.25
2022-10-13T04:20:29.930Z,27.27
2022-10-13T04:23:04.831Z,28.02
2022-10-13T04:25:34.068Z,27.10
2022-10-13T04:28:08.829Z,26.85
2022-10-13T04:30:39.278Z,27.92
2022-10-13T04:33:06.021Z,25.88
2022-10-13T04:35:35.101Z,25.60
2022-10-13T04:38:04.432Z,26.83
2022-10-13T04:40:35.629Z,26.83
2022-10-13T04:43:03.077Z,27.23
2022-10-13T04:45:34.417Z,26.63
2022-10-13T04:48:23.980Z,26.98
2022-10-13T04:51:28.531Z,26.17
2022-10-13T04:54:01.192Z,28.80
2022-10-13T04:56:28.312Z,27.55
2022-10-13T04:58:55.209Z,29.23
2022-10-13T05:04:10.420Z,27.60
2022-10-13T05:07:17.060Z,28.38
2022-10-13T05:09:52.450Z,27.55
2022-10-13T05:12:32.906Z,29.15
2022-10-13T05:15:02.530Z,29.67
2022-10-13T05:17:35.271Z,28.95
2022-10-13T05:20:02.716Z,31.00
2022-10-13T05:25:33.824Z,29.48
2022-10-13T05:28:21.849Z,27.80
2022-10-13T05:30:53.793Z,29.50
2022-10-13T05:33:20.452Z,28.65
2022-10-13T05:40:18.043Z,28.33
2022-10-13T05:43:08.242Z,30.13
2022-10-13T05:46:10.650Z,29.98
2022-10-13T05:51:37.400Z,29.08
2022-10-13T05:54:12.878Z,29.77
2022-10-13T05:56:48.787Z,30.25
2022-10-13T05:59:23.337Z,29.52
2022-10-13T06:01:53.473Z,28.95
2022-10-13T06:04:31.927Z,29.85
2022-10-13T06:07:09.178Z,31.50
2022-10-13T06:09:47.414Z,31.27
2022-10-13T06:12:19.004Z,27.75
2022-10-13T06:15:04.539Z,32.38
2022-10-13T06:17:31.582Z,30.98
2022-10-13T06:20:02.290Z,29.92
2022-10-13T06:22:29.025Z,31.70
2022-10-13T06:25:03.911Z,29.10
2022-10-13T06:27:37.064Z,30.67
2022-10-13T06:30:11.817Z,30.02
2022-10-13T06:33:17.862Z,31.80
2022-10-13T06:38:51.564Z,29.70
2022-10-13T06:41:18.338Z,31.48
2022-10-13T06:43:49.474Z,30.42
2022-10-13T06:46:16.342Z,30.55
2022-10-13T06:48:43.163Z,30.08
2022-10-13T06:51:12.028Z,31.05
2022-10-13T06:53:43.536Z,26.98
2022-10-13T06:56:10.643Z,26.73
2022-10-13T06:58:38.863Z,27.48
2022-10-13T07:01:06.637Z,28.85
2022-10-13T07:06:43.570Z,25.67
2022-10-13T07:09:25.574Z,27.27
2022-10-13T07:12:18.813Z,25.92
2022-10-13T07:14:51.568Z,22.10
2022-10-13T07:17:39.355Z,22.88
2022-10-13T07:24:01.667Z,22.52
2022-10-13T07:26:33.817Z,24.35
2022-10-13T07:29:06.610Z,23.65
2022-10-13T07:31:33.568Z,24.05
2022-10-13T07:34:00.660Z,22.63
2022-10-13T07:36:33.485Z,23.75
2022-10-13T07:39:08.540Z,23.48
2022-10-13T07:41:53.120Z,23.98
2022-10-13T07:44:20.027Z,22.92
2022-10-13T07:46:47.086Z,23.85
2022-10-13T07:49:26.915Z,23.15
2022-10-13T07:52:13.273Z,24.77
2022-10-13T07:55:37.048Z,23.63
2022-10-13T07:58:08.800Z,22.38
2022-10-13T08:01:01.090Z,22.70
2022-10-13T08:06:13.829Z,20.10
2022-10-13T08:08:41.017Z,22.17
2022-10-13T08:11:16.169Z,20.63
2022-10-13T08:13:51.572Z,20.50
2022-10-13T08:16:18.938Z,18.92
2022-10-13T08:18:46.603Z,20.42
2022-10-13T08:24:15.747Z,19.38
2022-10-13T08:27:00.144Z,18.63
2022-10-13T08:29:30.026Z,20.05
2022-10-13T08:34:51.245Z,19.02
2022-10-13T08:40:28.672Z,21.02
2022-10-13T08:43:04.944Z,19.00
2022-10-13T08:45:41.269Z,19.60
2022-10-13T08:48:30.841Z,20.10
2022-10-13T08:51:05.519Z,20.17
2022-10-13T08:53:45.142Z,20.42
2022-10-13T08:56:30.032Z,20.13
2022-10-13T08:59:01.687Z,21.25
2022-10-13T09:01:40.707Z,20.38
2022-10-13T09:04:33.954Z,20.45
2022-10-13T09:07:51.578Z,19.90
2022-10-13T09:10:18.948Z,21.63
2022-10-13T09:13:25.205Z,19.23
2022-10-13T09:16:09.126Z,20.70
2022-10-13T09:18:37.763Z,19.80
2022-10-13T09:21:18.845Z,20.92
2022-10-13T09:23:54.855Z,20.27
2022-10-13T09:26:49.873Z,21.10
2022-10-13T09:29:29.198Z,20.65
2022-10-13T09:32:37.268Z,20.48
2022-10-13T09:35:49.931Z,19.33
2022-10-13T09:38:26.193Z,19.15
2022-10-13T09:47:08.472Z,17.67
2022-10-13T09:50:07.439Z,20.73
2022-10-13T09:52:35.188Z,18.85
2022-10-13T09:55:03.394Z,18.90
2022-10-13T09:57:42.271Z,18.27
2022-10-13T10:00:22.913Z,19.27
2022-10-13T10:03:23.084Z,20.65
2022-10-13T10:09:05.559Z,20.85
2022-10-13T10:11:39.768Z,22.65
2022-10-13T10:14:49.067Z,20.98
2022-10-13T10:17:40.832Z,21.45
2022-10-13T10:20:54.611Z,20.80
2022-10-13T10:23:35.448Z,19.77
2022-10-13T10:27:00.845Z,19.95
2022-10-13T10:30:00.590Z,21.80
2022-10-13T10:32:47.280Z,18.77
2022-10-13T10:35:44.403Z,20.45
2022-10-13T10:38:18.085Z,19.52
2022-10-13T10:41:12.462Z,20.48
2022-10-13T10:43:45.629Z,20.48
2022-10-13T10:47:25.760Z,20.98
2022-10-13T10:50:03.823Z,20.80
2022-10-13T10:52:53.702Z,19.80
2022-10-13T10:55:47.856Z,21.40
2022-10-13T10:58:32.764Z,24.92
2022-10-13T11:04:38.988Z,23.13
2022-10-13T11:07:31.773Z,19.65
2022-10-13T11:10:34.301Z,19.38
2022-10-13T11:13:03.599Z,19.52
2022-10-13T11:15:43.898Z,20.58
2022-10-13T11:19:33.941Z,19.83
2022-10-13T11:22:16.364Z,19.23
2022-10-13T11:25:44.055Z,19.38
2022-10-13T11:28:43.461Z,18.98
2022-10-13T11:31:35.952Z,19.20
2022-10-13T11:35:35.189Z,21.10
2022-10-13T11:38:24.352Z,19.90
2022-10-13T11:41:25.351Z,82.63
2022-10-13T11:44:08.848Z,31.17
2022-10-13T11:47:12.311Z,18.80
2022-10-13T11:50:32.375Z,22.15
2022-10-13T11:53:33.312Z,19.00
2022-10-13T11:56:05.076Z,19.65
2022-10-13T11:59:10.881Z,19.23
2022-10-13T12:01:45.871Z,20.13
2022-10-13T12:04:42.807Z,19.52
2022-10-13T12:10:53.072Z,19.30
2022-10-13T12:13:00.924Z,19.67
2022-10-13T12:22:26.703Z,21.15
2022-10-13T12:25:06.643Z,20.95
2022-10-13T12:28:36.603Z,22.65
2022-10-13T12:31:40.722Z,23.17
2022-10-13T12:36:07.282Z,21.02
2022-10-13T12:38:07.063Z,19.45
2022-10-13T12:40:40.330Z,19.30
2022-10-13T12:47:14.406Z,26.52
2022-10-13T12:49:48.502Z,19.88
2022-10-13T12:55:29.911Z,17.38
2022-10-13T12:58:07.178Z,18.27
2022-10-13T13:00:55.092Z,17.10
2022-10-13T13:03:27.881Z,19.75
2022-10-13T13:06:42.873Z,18.55
2022-10-13T13:09:21.016Z,33.53
2022-10-13T13:12:40.866Z,18.65
2022-10-13T13:15:36.710Z,17.80
2022-10-13T13:18:42.762Z,19.63
2022-10-13T13:21:12.882Z,17.13
2022-10-13T13:24:15.970Z,17.52
2022-10-13T13:27:15.886Z,23.55
2022-10-13T13:30:12.432Z,16.95
2022-10-13T13:32:51.163Z,17.67
2022-10-13T13:35:28.181Z,18.42
2022-10-13T13:38:12.910Z,16.80
2022-10-13T13:41:04.939Z,16.75
2022-10-13T13:44:59.559Z,17.15
2022-10-13T13:47:56.746Z,17.27
2022-10-13T13:50:44.415Z,21.23
2022-10-13T13:53:17.635Z,17.35
2022-10-13T13:56:32.215Z,19.05
2022-10-13T13:59:59.081Z,19.80
2022-10-13T14:02:30.271Z,16.42
2022-10-13T14:05:08.189Z,16.98
2022-10-13T14:08:08.500Z,17.10
2022-10-13T14:11:21.947Z,15.60
2022-10-13T14:13:52.670Z,15.88
2022-10-13T14:19:06.109Z,16.98
2022-10-13T14:24:48.969Z,15.88
2022-10-13T14:28:12.517Z,15.40
2022-10-13T14:30:48.382Z,13.10
2022-10-13T14:40:20.847Z,13.45
2022-10-13T14:49:58.332Z,13.77
2022-10-13T14:52:41.122Z,13.20
2022-10-13T14:55:56.385Z,13.32
2022-10-13T14:59:16.939Z,13.02
2022-10-13T15:08:12.461Z,15.48
2022-10-13T15:10:38.840Z,15.50
2022-10-13T15:13:05.289Z,14.20
2022-10-13T15:15:31.826Z,15.93
2022-10-13T15:17:58.154Z,16.88
2022-10-13T15:20:24.551Z,15.00
2022-10-13T15:22:51.024Z,14.35
2022-10-13T15:25:17.391Z,13.80
2022-10-13T15:27:43.795Z,15.40
2022-10-13T15:30:10.538Z,14.98
2022-10-13T15:32:36.867Z,16.27
2022-10-13T15:35:03.444Z,14.10
2022-10-13T15:37:29.876Z,13.45
2022-10-13T15:39:57.687Z,13.50
2022-10-13T15:42:24.206Z,15.10
2022-10-13T15:45:08.651Z,13.48
2022-10-13T15:47:36.293Z,14.02
2022-10-13T15:50:02.895Z,14.15
2022-10-13T15:52:33.827Z,13.73
2022-10-13T15:55:01.635Z,13.55
2022-10-13T15:57:27.986Z,15.02
2022-10-13T15:59:54.327Z,13.20
2022-10-13T16:02:20.884Z,13.18
2022-10-13T16:04:47.446Z,17.75
2022-10-13T16:07:13.796Z,14.13
2022-10-13T16:09:40.169Z,17.20
2022-10-13T16:12:06.662Z,17.30
2022-10-13T16:14:33.006Z,16.63
2022-10-13T16:16:59.400Z,14.77
2022-10-13T16:19:25.852Z,23.80
2022-10-13T16:21:52.310Z,20.85
2022-10-13T16:24:18.651Z,20.20
2022-10-13T16:26:44.984Z,22.00
2022-10-13T16:29:11.537Z,16.20
2022-10-13T16:31:38.074Z,14.80
2022-10-13T16:34:04.426Z,16.80
2022-10-13T16:36:31.202Z,25.15
2022-10-13T16:38:57.748Z,20.15
2022-10-13T16:41:24.160Z,16.00
2022-10-13T16:43:50.771Z,16.33
2022-10-13T16:46:20.566Z,16.30
2022-10-13T16:48:48.059Z,15.20
2022-10-13T16:51:17.214Z,13.95
2022-10-13T16:53:48.212Z,15.68
2022-10-13T16:56:14.646Z,15.52
2022-10-13T16:58:44.976Z,13.05
2022-10-13T17:01:12.745Z,14.57
2022-10-13T17:03:39.656Z,14.25
2022-10-13T17:06:06.887Z,18.70
2022-10-13T17:08:33.546Z,15.55
2022-10-13T17:11:00.972Z,15.57
2022-10-13T17:13:27.838Z,16.20
2022-10-13T17:15:55.753Z,18.75
2022-10-13T17:18:22.790Z,15.85
2022-10-13T17:21:00.921Z,14.15
2022-10-13T17:23:28.502Z,13.57
2022-10-13T17:25:56.408Z,12.00
2022-10-13T17:28:22.909Z,12.52
2022-10-13T17:31:01.386Z,12.45
2022-10-13T17:33:29.746Z,12.02
2022-10-13T17:36:05.250Z,11.45
2022-10-13T17:38:32.034Z,13.30
2022-10-13T17:41:03.908Z,12.68
2022-10-13T17:43:31.013Z,12.23
2022-10-13T17:49:00.891Z,12.80
2022-10-13T17:51:28.159Z,14.05
2022-10-13T17:53:54.626Z,20.40
2022-10-13T17:56:23.495Z,18.92
2022-10-13T17:58:50.981Z,25.98
2022-10-13T18:01:23.733Z,29.15
2022-10-13T18:03:52.701Z,32.30
2022-10-13T18:06:19.850Z,26.15
2022-10-13T18:08:46.363Z,23.92
2022-10-13T18:11:19.018Z,24.23
2022-10-13T18:13:46.822Z,22.83
2022-10-13T18:16:21.941Z,18.05
2022-10-13T18:18:50.032Z,16.52
2022-10-13T18:21:19.170Z,14.48
2022-10-13T18:23:45.905Z,14.57
2022-10-13T18:26:19.845Z,16.90
2022-10-13T18:28:48.278Z,18.25
2022-10-13T18:31:34.698Z,16.92
2022-10-13T18:34:03.978Z,13.60
2022-10-13T18:36:38.991Z,13.13
2022-10-13T18:39:08.414Z,17.10
2022-10-13T18:41:36.162Z,16.13
2022-10-13T18:44:03.900Z,14.60
2022-10-13T18:46:31.746Z,14.68
2022-10-13T18:48:58.253Z,14.90
2022-10-13T18:51:25.408Z,14.32
2022-10-13T18:53:52.122Z,14.43
2022-10-13T18:56:24.796Z,13.70
2022-10-13T18:58:58.397Z,14.80
2022-10-13T19:01:27.457Z,14.38
2022-10-13T19:03:54.527Z,15.35
2022-10-13T19:06:26.632Z,15.52
2022-10-13T19:09:01.118Z,15.55
2022-10-13T19:11:29.245Z,14.50
2022-10-13T19:13:56.231Z,14.57
2022-10-13T19:16:24.453Z,14.52
2022-10-13T19:18:51.805Z,14.57
2022-10-13T19:21:19.381Z,15.73
2022-10-13T19:23:46.015Z,14.82
2022-10-13T19:26:18.586Z,14.40
2022-10-13T19:28:45.525Z,14.95
2022-10-13T19:31:21.250Z,27.38
2022-10-13T19:33:50.158Z,27.35
2022-10-13T19:36:30.266Z,22.80
2022-10-13T19:38:57.681Z,16.33
2022-10-13T19:41:24.632Z,15.93
2022-10-13T19:43:51.170Z,16.35
2022-10-13T19:46:17.797Z,15.25
2022-10-13T19:48:44.764Z,14.70
2022-10-13T19:51:11.599Z,14.75
2022-10-13T19:53:39.269Z,15.43
2022-10-13T19:56:06.615Z,18.20
2022-10-13T19:58:33.322Z,17.10
2022-10-13T20:01:08.305Z,16.45
2022-10-13T20:03:34.921Z,15.63
2022-10-13T20:06:06.079Z,15.77
2022-10-13T20:08:32.599Z,15.10
2022-10-13T20:11:00.562Z,13.85
2022-10-13T20:13:26.916Z,15.55
2022-10-13T20:15:53.274Z,14.13
2022-10-13T20:18:19.668Z,15.80
2022-10-13T20:20:46.006Z,14.80
2022-10-13T20:23:12.336Z,15.48
2022-10-13T20:25:38.876Z,15.02
2022-10-13T20:28:05.822Z,14.40
2022-10-13T20:30:33.272Z,15.95
2022-10-13T20:33:00.330Z,17.15
2022-10-13T20:35:26.702Z,15.00
2022-10-13T20:37:53.076Z,16.88
2022-10-13T20:40:24.613Z,16.88
2022-10-13T20:42:52.044Z,18.55
2022-10-13T20:45:19.022Z,15.63
2022-10-13T20:47:46.769Z,15.60
2022-10-13T20:50:13.166Z,15.25
2022-10-13T20:52:39.563Z,15.02
2022-10-13T20:55:06.025Z,16.08
2022-10-13T20:57:32.394Z,17.25
2022-10-13T20:59:58.717Z,27.73
2022-10-13T21:02:25.046Z,16.55
2022-10-13T21:04:51.417Z,16.25
2022-10-13T21:07:18.092Z,17.30
2022-10-13T21:09:44.703Z,15.90
2022-10-13T21:12:11.049Z,16.88
2022-10-13T21:14:37.376Z,15.73
2022-10-13T21:17:03.896Z,16.75
2022-10-13T21:19:30.365Z,17.00
2022-10-13T21:21:56.690Z,17.38
2022-10-13T21:24:23.123Z,16.45
2022-10-13T21:26:49.455Z,17.60
2022-10-13T21:29:15.837Z,16.13
2022-10-13T21:31:42.271Z,17.45
2022-10-13T21:34:10.718Z,16.48
2022-10-13T21:36:37.132Z,17.45
2022-10-13T21:39:05.701Z,16.98
2022-10-13T21:41:32.225Z,17.05
2022-10-13T21:43:58.655Z,17.38
2022-10-13T21:46:31.365Z,16.73
2022-10-13T21:49:00.406Z,16.20
2022-10-13T21:51:36.371Z,18.00
2022-10-13T21:54:06.022Z,17.58
2022-10-13T21:56:32.985Z,17.63
2022-10-13T21:59:00.301Z,17.75
2022-10-13T22:01:27.403Z,17.95
2022-10-13T22:03:59.097Z,18.30
2022-10-13T22:06:26.737Z,19.10
2022-10-13T22:08:55.257Z,18.20
2022-10-13T22:11:24.165Z,18.20
2022-10-13T22:13:50.990Z,17.10
2022-10-13T22:16:23.635Z,18.83
2022-10-13T22:18:56.959Z,19.20
2022-10-13T22:21:29.971Z,18.02
2022-10-13T22:23:58.634Z,17.70
2022-10-13T22:26:26.831Z,16.35
2022-10-13T22:28:53.447Z,17.08
2022-10-13T22:31:20.302Z,17.13
2022-10-13T22:33:47.051Z,17.20
2022-10-13T22:36:18.791Z,17.08
2022-10-13T22:38:46.549Z,17.90
2022-10-13T22:41:14.601Z,16.33
2022-10-13T22:43:46.510Z,16.75
2022-10-13T22:46:18.014Z,16.85
2022-10-13T22:48:45.068Z,17.15
2022-10-13T22:51:13.999Z,17.10
2022-10-13T22:53:40.422Z,17.40
2022-10-13T22:56:09.437Z,17.98
2022-10-13T22:58:36.145Z,16.65
2022-10-13T23:01:14.775Z,18.52
2022-10-13T23:03:41.885Z,17.33
2022-10-13T23:06:13.599Z,17.63
2022-10-13T23:08:40.076Z,18.10
2022-10-13T23:11:06.501Z,18.35
2022-10-13T23:13:32.874Z,17.38
2022-10-13T23:16:03.813Z,17.63
2022-10-13T23:18:30.322Z,18.63
2022-10-13T23:20:57.181Z,17.38
2022-10-13T23:23:23.618Z,17.15
2022-10-13T23:25:50.024Z,18.10
2022-10-13T23:28:16.491Z,17.55
2022-10-13T23:30:43.134Z,17.17
2022-10-13T23:33:09.554Z,17.65
2022-10-13T23:35:35.891Z,16.88
2022-10-13T23:38:02.270Z,16.17
2022-10-13T23:40:28.647Z,16.38
2022-10-13T23:42:54.989Z,17.15
2022-10-13T23:45:22.563Z,18.10
2022-10-13T23:47:48.890Z,15.93
2022-10-13T23:50:15.294Z,17.15
2022-10-13T23:52:41.639Z,16.60
2022-10-13T23:55:09.084Z,17.58
2022-10-13T23:57:35.431Z,16.40
